createdAt,value
2023-03-26T00:01:29.697Z,100.00
2023-03-26T00:03:58.028Z,100.00
2023-03-26T00:06:31.301Z,100.00
2023-03-26T00:08:58.497Z,100.00
2023-03-26T00:11:27.447Z,100.00
2023-03-26T00:13:57.750Z,99.79
2023-03-26T00:16:28.845Z,99.54
2023-03-26T00:18:57.520Z,99.93
2023-03-26T00:21:28.200Z,100.00
2023-03-26T00:23:58.480Z,100.00
2023-03-26T00:26:27.108Z,100.00
2023-03-26T00:28:54.521Z,100.00
2023-03-26T00:31:22.292Z,100.00
2023-03-26T00:33:54.289Z,100.00
2023-03-26T00:36:25.376Z,100.00
2023-03-26T00:38:53.924Z,100.00
2023-03-26T00:41:25.878Z,100.00
2023-03-26T00:43:58.815Z,100.00
2023-03-26T00:46:28.497Z,100.00
2023-03-26T00:48:58.864Z,100.00
2023-03-26T00:51:27.713Z,100.00
2023-03-26T00:53:55.778Z,100.00
2023-03-26T00:56:23.223Z,100.00
2023-03-26T00:58:50.420Z,100.00
2023-03-26T01:01:27.292Z,100.00
2023-03-26T01:04:08.295Z,100.00
2023-03-26T01:06:42.327Z,100.00
2023-03-26T01:09:21.511Z,100.00
2023-03-26T01:11:49.865Z,100.00
2023-03-26T01:14:25.309Z,100.00
2023-03-26T01:16:58.426Z,100.00
2023-03-26T01:19:38.206Z,100.00
2023-03-26T01:22:09.606Z,100.00
2023-03-26T01:24:37.870Z,100.00
2023-03-26T01:27:09.560Z,100.00
2023-03-26T01:29:42.880Z,100.00
2023-03-26T01:32:17.684Z,100.00
2023-03-26T01:35:19.075Z,100.00
2023-03-26T01:38:18.495Z,100.00
2023-03-26T01:40:54.762Z,100.00
2023-03-26T01:43:44.391Z,100.00
2023-03-26T01:46:14.691Z,100.00
2023-03-26T01:48:46.823Z,100.00
2023-03-26T01:51:25.120Z,100.00
2023-03-26T01:53:53.410Z,100.00
2023-03-26T01:56:35.915Z,100.00
2023-03-26T01:59:21.339Z,100.00
2023-03-26T02:02:11.735Z,100.00
2023-03-26T02:05:00.336Z,100.00
2023-03-26T02:07:52.963Z,100.00
2023-03-26T02:10:29.702Z,100.00
2023-03-26T02:12:59.014Z,100.00
2023-03-26T02:15:26.245Z,100.00
2023-03-26T02:17:54.077Z,100.00
2023-03-26T02:20:21.654Z,100.00
2023-03-26T02:22:48.957Z,100.00
2023-03-26T02:25:21.245Z,100.00
2023-03-26T02:27:52.431Z,100.00
2023-03-26T02:30:26.049Z,100.00
2023-03-26T02:32:59.246Z,100.00
2023-03-26T02:35:31.398Z,100.00
2023-03-26T02:38:01.160Z,100.00
2023-03-26T02:40:28.558Z,100.00
2023-03-26T02:42:56.397Z,100.00
2023-03-26T02:45:24.333Z,100.00
2023-03-26T02:48:09.971Z,100.00
2023-03-26T02:51:03.060Z,100.00
2023-03-26T02:53:41.995Z,100.00
2023-03-26T02:56:35.315Z,100.00
2023-03-26T02:59:25.307Z,100.00
2023-03-26T03:02:13.403Z,100.00
2023-03-26T03:04:41.058Z,100.00
2023-03-26T03:07:08.222Z,100.00
2023-03-26T03:09:35.518Z,100.00
2023-03-26T03:12:25.283Z,100.00
2023-03-26T03:14:52.553Z,100.00
2023-03-26T03:17:20.891Z,100.00
2023-03-26T03:19:48.203Z,100.00
2023-03-26T03:22:16.244Z,100.00
2023-03-26T03:24:43.793Z,100.00
2023-03-26T03:27:10.960Z,100.00
2023-03-26T03:29:42.824Z,100.00
2023-03-26T03:32:28.478Z,100.00
2023-03-26T03:35:00.402Z,100.00
2023-03-26T03:37:27.696Z,100.00
2023-03-26T03:39:56.220Z,100.00
2023-03-26T03:42:27.405Z,100.00
2023-03-26T03:44:57.224Z,100.00
2023-03-26T03:47:43.054Z,100.00
2023-03-26T03:50:11.794Z,100.00
2023-03-26T03:52:47.313Z,100.00
2023-03-26T03:55:17.292Z,100.00
2023-03-26T03:57:52.456Z,100.00
2023-03-26T04:00:22.587Z,100.00
2023-03-26T04:03:06.489Z,100.00
2023-03-26T04:05:34.593Z,100.00
2023-03-26T04:08:01.903Z,100.00
2023-03-26T04:10:28.933Z,100.00
2023-03-26T04:13:05.286Z,100.00
2023-03-26T04:15:48.535Z,100.00
2023-03-26T04:18:15.820Z,100.00
2023-03-26T04:20:49.324Z,100.00
2023-03-26T04:23:23.213Z,100.00
2023-03-26T04:26:03.397Z,100.00
2023-03-26T04:28:54.721Z,100.00
2023-03-26T04:31:30.769Z,100.00
2023-03-26T04:34:06.220Z,100.00
2023-03-26T04:36:40.646Z,100.00
2023-03-26T04:39:11.697Z,100.00
2023-03-26T04:42:14.313Z,100.00
2023-03-26T04:44:55.854Z,100.00
2023-03-26T04:47:23.534Z,100.00
2023-03-26T04:49:50.926Z,100.00
2023-03-26T04:52:18.761Z,100.00
2023-03-26T04:54:58.350Z,100.00
2023-03-26T04:57:32.624Z,100.00
2023-03-26T05:00:19.561Z,100.00
2023-03-26T05:02:57.817Z,100.00
2023-03-26T05:05:26.960Z,100.00
2023-03-26T05:07:55.267Z,100.00
2023-03-26T05:10:23.832Z,100.00
2023-03-26T05:12:56.391Z,100.00
2023-03-26T05:15:27.211Z,100.00
2023-03-26T05:17:55.522Z,100.00
2023-03-26T05:20:34.311Z,100.00
2023-03-26T05:23:03.288Z,100.00
2023-03-26T05:25:34.802Z,100.00
2023-03-26T05:28:03.772Z,100.00
2023-03-26T05:30:38.906Z,100.00
2023-03-26T05:33:06.626Z,100.00
2023-03-26T05:35:45.275Z,100.00
2023-03-26T05:38:12.837Z,100.00
2023-03-26T05:40:39.970Z,100.00
2023-03-26T05:43:08.252Z,100.00
2023-03-26T05:45:35.313Z,100.00
2023-03-26T05:48:15.646Z,100.00
2023-03-26T05:50:42.983Z,100.00
2023-03-26T05:53:10.258Z,100.00
2023-03-26T05:55:59.351Z,100.00
2023-03-26T05:58:45.002Z,100.00
2023-03-26T06:01:44.615Z,100.00
2023-03-26T06:04:16.147Z,100.00
2023-03-26T06:06:57.729Z,100.00
2023-03-26T06:09:25.828Z,100.00
2023-03-26T06:11:52.987Z,100.00
2023-03-26T06:14:20.767Z,100.00
2023-03-26T06:17:15.392Z,100.00
2023-03-26T06:20:00.982Z,100.00
2023-03-26T06:22:40.458Z,100.00
2023-03-26T06:25:19.289Z,100.00
2023-03-26T06:28:16.262Z,99.99
2023-03-26T06:30:49.676Z,98.61
2023-03-26T06:33:30.450Z,98.51
2023-03-26T06:35:59.646Z,97.68
2023-03-26T06:38:27.031Z,97.54
2023-03-26T06:40:54.793Z,97.12
2023-03-26T06:43:25.394Z,95.22
2023-03-26T06:46:21.352Z,95.95
2023-03-26T06:49:07.099Z,95.78
2023-03-26T06:51:53.452Z,96.11
2023-03-26T06:54:39.150Z,94.59
2023-03-26T06:57:48.697Z,95.38
2023-03-26T07:00:42.315Z,94.26
2023-03-26T07:03:38.978Z,92.70
2023-03-26T07:06:24.886Z,92.76
2023-03-26T07:09:12.026Z,93.08
2023-03-26T07:11:59.167Z,92.11
2023-03-26T07:14:44.935Z,91.47
2023-03-26T07:17:35.173Z,90.54
2023-03-26T07:20:13.211Z,91.04
2023-03-26T07:22:42.071Z,92.22
2023-03-26T07:25:28.059Z,91.16
2023-03-26T07:28:32.834Z,91.69
2023-03-26T07:31:46.081Z,91.01
2023-03-26T07:35:03.298Z,91.49
2023-03-26T07:37:57.103Z,91.54
2023-03-26T07:40:54.956Z,89.99
2023-03-26T07:43:52.012Z,88.71
2023-03-26T07:46:34.858Z,89.48
2023-03-26T07:49:21.840Z,88.10
2023-03-26T07:52:25.932Z,87.99
2023-03-26T07:55:14.981Z,88.22
2023-03-26T07:58:18.977Z,88.00
2023-03-26T08:01:25.139Z,87.81
2023-03-26T08:04:23.574Z,87.86
2023-03-26T08:07:45.124Z,84.88
2023-03-26T08:10:23.216Z,83.85
2023-03-26T08:13:28.071Z,83.78
2023-03-26T08:16:01.360Z,83.28
2023-03-26T08:18:50.196Z,83.43
2023-03-26T08:21:34.863Z,82.32
2023-03-26T08:24:34.231Z,84.31
2023-03-26T08:27:13.456Z,81.02
2023-03-26T08:29:45.149Z,82.89
2023-03-26T08:32:19.038Z,82.17
2023-03-26T08:34:46.779Z,82.66
2023-03-26T08:37:14.644Z,83.35
2023-03-26T08:39:42.363Z,81.80
2023-03-26T08:42:21.305Z,80.05
2023-03-26T08:45:30.015Z,77.97
2023-03-26T08:48:06.637Z,78.64
2023-03-26T08:50:46.304Z,79.63
2023-03-26T08:53:13.637Z,79.27
2023-03-26T08:56:01.592Z,77.37
2023-03-26T08:58:50.638Z,78.09
2023-03-26T09:01:20.526Z,76.65
2023-03-26T09:04:24.648Z,73.15
2023-03-26T09:07:06.837Z,74.44
2023-03-26T09:10:02.867Z,74.75
2023-03-26T09:12:51.351Z,74.20
2023-03-26T09:15:42.366Z,70.94
2023-03-26T09:18:18.526Z,71.38
2023-03-26T09:20:54.767Z,71.87
2023-03-26T09:23:36.406Z,71.90
2023-03-26T09:26:26.120Z,70.45
2023-03-26T09:29:14.941Z,69.67
2023-03-26T09:32:17.025Z,68.27
2023-03-26T09:34:50.086Z,67.48
2023-03-26T09:37:56.891Z,68.70
2023-03-26T09:41:05.484Z,66.80
2023-03-26T09:43:36.746Z,65.92
2023-03-26T09:46:35.975Z,64.56
2023-03-26T09:49:26.924Z,64.00
2023-03-26T09:52:13.593Z,59.96
2023-03-26T09:54:49.990Z,61.90
2023-03-26T09:57:45.217Z,58.69
2023-03-26T10:00:28.371Z,58.82
2023-03-26T10:03:26.410Z,59.13
2023-03-26T10:06:11.923Z,58.82
2023-03-26T10:08:50.404Z,59.09
2023-03-26T10:11:38.110Z,57.12
2023-03-26T10:14:29.430Z,52.83
2023-03-26T10:17:21.715Z,54.80
2023-03-26T10:19:52.320Z,54.94
2023-03-26T10:22:27.335Z,53.44
2023-03-26T10:25:12.831Z,52.33
2023-03-26T10:27:46.146Z,51.26
2023-03-26T10:30:15.968Z,49.54
2023-03-26T10:33:02.904Z,52.55
2023-03-26T10:35:39.794Z,52.84
2023-03-26T10:38:18.317Z,48.42
2023-03-26T10:40:58.477Z,48.53
2023-03-26T10:44:07.486Z,50.70
2023-03-26T10:46:52.581Z,50.71
2023-03-26T10:49:25.809Z,49.82
2023-03-26T10:51:55.865Z,52.60
2023-03-26T10:54:47.405Z,53.78
2023-03-26T10:57:23.312Z,49.80
2023-03-26T10:59:53.997Z,51.65
2023-03-26T11:02:29.597Z,49.55
2023-03-26T11:05:07.064Z,48.56
2023-03-26T11:07:44.028Z,47.81
2023-03-26T11:10:16.880Z,49.97
2023-03-26T11:12:55.735Z,48.98
2023-03-26T11:15:31.337Z,49.57
2023-03-26T11:17:58.419Z,49.63
2023-03-26T11:20:44.176Z,50.32
2023-03-26T11:23:36.127Z,49.06
2023-03-26T11:26:06.306Z,50.36
2023-03-26T11:29:03.077Z,50.18
2023-03-26T11:31:32.001Z,51.50
2023-03-26T11:34:06.269Z,51.43
2023-03-26T11:36:39.589Z,52.33
2023-03-26T11:39:13.897Z,52.02
2023-03-26T11:41:41.287Z,51.31
2023-03-26T11:44:28.235Z,50.19
2023-03-26T11:47:01.192Z,48.75
2023-03-26T11:49:29.497Z,48.29
2023-03-26T11:51:56.711Z,48.34
2023-03-26T11:54:23.810Z,47.69
2023-03-26T11:57:05.805Z,48.23
2023-03-26T11:59:57.132Z,48.78
2023-03-26T12:02:38.597Z,48.85
2023-03-26T12:05:29.440Z,47.02
2023-03-26T12:08:00.426Z,46.24
2023-03-26T12:10:35.058Z,46.35
2023-03-26T12:13:26.506Z,46.37
2023-03-26T12:15:59.387Z,44.84
2023-03-26T12:18:28.258Z,42.48
2023-03-26T12:21:10.601Z,43.95
2023-03-26T12:23:45.486Z,45.28
2023-03-26T12:26:18.766Z,43.45
2023-03-26T12:28:47.369Z,44.23
2023-03-26T12:31:19.681Z,44.79
2023-03-26T12:34:16.707Z,43.67
2023-03-26T12:36:59.999Z,43.51
2023-03-26T12:40:08.087Z,44.21
2023-03-26T12:44:51.383Z,43.38
2023-03-26T12:45:14.398Z,41.90
2023-03-26T12:47:57.825Z,40.50
2023-03-26T12:50:57.609Z,40.79
2023-03-26T12:53:37.601Z,40.68
2023-03-26T12:56:27.205Z,40.24
2023-03-26T12:59:18.604Z,42.70
2023-03-26T13:02:13.996Z,43.37
2023-03-26T13:05:07.071Z,40.12
2023-03-26T13:07:48.737Z,38.99
2023-03-26T13:10:37.129Z,38.74
2023-03-26T13:13:10.004Z,40.10
2023-03-26T13:15:43.302Z,39.11
2023-03-26T13:18:48.950Z,39.19
2023-03-26T13:21:37.927Z,39.05
2023-03-26T13:24:22.958Z,38.22
2023-03-26T13:27:04.257Z,40.76
2023-03-26T13:29:49.832Z,40.19
2023-03-26T13:32:22.867Z,38.63
2023-03-26T13:35:17.818Z,38.29
2023-03-26T13:38:00.979Z,38.25
2023-03-26T13:41:14.507Z,39.95
2023-03-26T13:43:58.000Z,40.53
2023-03-26T13:46:48.858Z,39.71
2023-03-26T13:49:29.282Z,40.87
2023-03-26T13:52:01.754Z,40.19
2023-03-26T13:54:35.827Z,42.10
2023-03-26T13:57:31.832Z,43.04
2023-03-26T14:02:57.416Z,38.57
2023-03-26T14:05:33.363Z,41.22
2023-03-26T14:08:04.364Z,41.61
2023-03-26T14:10:42.995Z,42.19
2023-03-26T14:13:15.626Z,41.40
2023-03-26T14:16:21.066Z,41.90
2023-03-26T14:18:56.176Z,41.58
2023-03-26T14:22:02.063Z,41.85
2023-03-26T14:25:04.541Z,41.06
2023-03-26T14:27:40.525Z,41.67
2023-03-26T14:30:28.190Z,41.29
2023-03-26T14:33:11.308Z,42.96
2023-03-26T14:36:07.095Z,40.87
2023-03-26T14:38:52.176Z,39.89
2023-03-26T14:41:28.926Z,39.04
2023-03-26T14:44:24.000Z,36.96
2023-03-26T14:47:01.673Z,34.59
2023-03-26T14:50:03.405Z,31.03
2023-03-26T14:52:50.893Z,28.32
2023-03-26T14:55:30.114Z,29.20
2023-03-26T14:58:08.075Z,29.71
2023-03-26T15:01:04.056Z,27.60
2023-03-26T15:03:48.851Z,29.82
2023-03-26T15:06:34.142Z,31.16
2023-03-26T15:09:26.351Z,32.72
2023-03-26T15:12:21.167Z,32.01
2023-03-26T15:15:13.182Z,32.14
2023-03-26T15:17:49.445Z,33.88
2023-03-26T15:21:00.290Z,35.26
2023-03-26T15:23:58.566Z,36.36
2023-03-26T15:26:44.150Z,37.42
2023-03-26T15:29:40.247Z,38.23
2023-03-26T15:32:30.068Z,37.32
2023-03-26T15:35:34.680Z,37.24
2023-03-26T15:38:10.608Z,36.55
2023-03-26T15:40:44.705Z,35.52
2023-03-26T15:43:11.828Z,36.56
2023-03-26T15:45:49.733Z,38.22
2023-03-26T15:48:25.829Z,39.33
2023-03-26T15:50:54.441Z,40.03
2023-03-26T15:53:48.935Z,40.51
2023-03-26T15:56:40.293Z,41.89
2023-03-26T15:59:38.199Z,42.47
2023-03-26T16:02:38.964Z,42.66
2023-03-26T16:05:44.744Z,43.81
2023-03-26T16:08:38.761Z,44.13
2023-03-26T16:11:12.466Z,44.75
2023-03-26T16:13:39.906Z,43.87
2023-03-26T16:16:19.882Z,44.72
2023-03-26T16:18:58.469Z,46.19
2023-03-26T16:21:32.820Z,47.73
2023-03-26T16:24:03.063Z,47.93
2023-03-26T16:26:48.791Z,49.18
2023-03-26T16:29:26.794Z,48.04
2023-03-26T16:32:15.795Z,50.77
2023-03-26T16:34:57.951Z,51.77
2023-03-26T16:37:50.571Z,53.94
2023-03-26T16:40:17.820Z,57.37
2023-03-26T16:43:11.725Z,60.26
2023-03-26T16:45:49.149Z,67.87
2023-03-26T16:48:51.341Z,72.82
2023-03-26T16:51:31.902Z,76.73
2023-03-26T16:54:23.251Z,81.08
2023-03-26T16:57:16.173Z,84.80
2023-03-26T17:00:06.187Z,88.25
2023-03-26T17:03:16.003Z,90.79
2023-03-26T17:05:58.041Z,91.19
2023-03-26T17:08:43.396Z,93.40
2023-03-26T17:11:36.717Z,97.49
2023-03-26T17:14:24.858Z,97.22
2023-03-26T17:17:22.530Z,98.74
2023-03-26T17:20:19.163Z,99.60
2023-03-26T17:22:51.697Z,99.09
2023-03-26T17:26:02.935Z,99.53
2023-03-26T17:28:50.522Z,99.55
2023-03-26T17:31:40.139Z,98.37
2023-03-26T17:34:33.172Z,99.29
2023-03-26T17:37:03.161Z,98.96
2023-03-26T17:39:50.420Z,100.00
2023-03-26T17:42:27.413Z,100.00
2023-03-26T17:44:59.220Z,100.00
2023-03-26T17:47:26.383Z,99.92
2023-03-26T17:50:20.206Z,100.00
2023-03-26T17:53:01.235Z,100.00
2023-03-26T17:55:31.635Z,100.00
2023-03-26T17:58:03.451Z,100.00
2023-03-26T18:00:41.301Z,100.00
2023-03-26T18:03:08.398Z,100.00
2023-03-26T18:05:39.402Z,100.00
2023-03-26T18:08:41.391Z,100.00
2023-03-26T18:11:36.970Z,100.00
2023-03-26T18:14:29.762Z,100.00
2023-03-26T18:16:59.866Z,100.00
2023-03-26T18:19:27.537Z,100.00
2023-03-26T18:21:58.943Z,100.00
2023-03-26T18:24:37.444Z,100.00
2023-03-26T18:27:08.481Z,100.00
2023-03-26T18:29:37.831Z,100.00
2023-03-26T18:32:11.307Z,100.00
2023-03-26T18:34:46.625Z,100.00
2023-03-26T18:37:19.567Z,100.00
2023-03-26T18:39:59.061Z,100.00
2023-03-26T18:42:28.350Z,100.00
2023-03-26T18:44:59.930Z,100.00
2023-03-26T18:47:31.046Z,100.00
2023-03-26T18:49:59.065Z,100.00
2023-03-26T18:52:29.829Z,100.00
2023-03-26T18:54:59.049Z,100.00
2023-03-26T18:57:28.401Z,100.00
2023-03-26T19:00:08.820Z,100.00
2023-03-26T19:02:36.629Z,100.00
2023-03-26T19:05:04.172Z,100.00
2023-03-26T19:07:31.615Z,100.00
2023-03-26T19:10:00.348Z,100.00
2023-03-26T19:12:33.123Z,100.00
2023-03-26T19:15:17.254Z,100.00
2023-03-26T19:17:47.763Z,100.00
2023-03-26T19:20:27.712Z,100.00
2023-03-26T19:22:56.861Z,100.00
2023-03-26T19:25:31.355Z,100.00
2023-03-26T19:27:59.214Z,100.00
2023-03-26T19:30:32.782Z,100.00
2023-03-26T19:33:13.265Z,100.00
2023-03-26T19:35:42.396Z,100.00
2023-03-26T19:38:29.994Z,100.00
2023-03-26T19:40:58.100Z,100.00
2023-03-26T19:43:26.234Z,100.00
2023-03-26T19:46:00.029Z,100.00
2023-03-26T19:48:46.665Z,100.00
2023-03-26T19:51:37.122Z,100.00
2023-03-26T19:54:14.614Z,100.00
2023-03-26T19:56:43.421Z,100.00
2023-03-26T19:59:10.664Z,100.00
2023-03-26T20:01:37.855Z,100.00
2023-03-26T20:04:06.609Z,100.00
2023-03-26T20:06:43.237Z,100.00
2023-03-26T20:09:14.275Z,100.00
2023-03-26T20:11:42.088Z,100.00
2023-03-26T20:14:15.169Z,100.00
2023-03-26T20:16:44.931Z,100.00
2023-03-26T20:19:14.718Z,100.00
2023-03-26T20:21:43.005Z,100.00
2023-03-26T20:24:18.102Z,100.00
2023-03-26T20:26:46.493Z,100.00
2023-03-26T20:29:14.527Z,100.00
2023-03-26T20:31:42.584Z,100.00
2023-03-26T20:34:16.636Z,100.00
2023-03-26T20:36:45.518Z,100.00
2023-03-26T20:39:13.278Z,100.00
2023-03-26T20:41:45.007Z,100.00
2023-03-26T20:44:15.613Z,100.00
2023-03-26T20:46:43.938Z,100.00
2023-03-26T20:49:12.235Z,100.00
2023-03-26T20:51:41.736Z,100.00
2023-03-26T20:54:17.764Z,100.00
2023-03-26T20:56:45.656Z,100.00
2023-03-26T20:59:18.831Z,100.00
2023-03-26T21:01:47.378Z,100.00
2023-03-26T21:04:16.086Z,100.00
2023-03-26T21:06:43.620Z,100.00
2023-03-26T21:09:15.043Z,100.00
2023-03-26T21:12:02.098Z,100.00
2023-03-26T21:14:40.227Z,100.00
2023-03-26T21:17:14.621Z,100.00
2023-03-26T21:19:42.654Z,100.00
2023-03-26T21:22:22.574Z,100.00
2023-03-26T21:24:58.064Z,100.00
2023-03-26T21:27:37.800Z,100.00
2023-03-26T21:30:16.229Z,100.00
2023-03-26T21:32:45.370Z,100.00
2023-03-26T21:35:14.936Z,100.00
2023-03-26T21:37:44.355Z,100.00
2023-03-26T21:40:14.571Z,100.00
2023-03-26T21:42:43.246Z,100.00
2023-03-26T21:45:11.262Z,100.00
2023-03-26T21:47:38.802Z,100.00
2023-03-26T21:50:07.753Z,100.00
2023-03-26T21:52:35.841Z,100.00
2023-03-26T21:55:05.257Z,100.00
2023-03-26T21:57:43.567Z,100.00
2023-03-26T22:00:23.731Z,100.00
2023-03-26T22:03:14.829Z,100.00
2023-03-26T22:06:02.707Z,100.00
2023-03-26T22:08:35.670Z,100.00
2023-03-26T22:11:02.819Z,100.00
2023-03-26T22:13:30.986Z,100.00
2023-03-26T22:15:58.187Z,100.00
2023-03-26T22:18:26.022Z,100.00
2023-03-26T22:20:53.292Z,100.00
2023-03-26T22:23:20.822Z,100.00
2023-03-26T22:25:47.955Z,100.00
2023-03-26T22:28:15.657Z,100.00
2023-03-26T22:30:42.777Z,100.00
2023-03-26T22:33:11.079Z,100.00
2023-03-26T22:35:39.014Z,100.00
2023-03-26T22:38:06.822Z,100.00
2023-03-26T22:40:33.925Z,100.00
2023-03-26T22:43:01.062Z,100.00
2023-03-26T22:45:28.139Z,100.00
2023-03-26T22:48:03.811Z,100.00
2023-03-26T22:50:32.514Z,100.00
2023-03-26T22:52:59.778Z,100.00
2023-03-26T22:55:28.968Z,100.00
2023-03-26T22:57:57.335Z,100.00
2023-03-26T23:00:26.382Z,100.00
2023-03-26T23:02:55.965Z,100.00
2023-03-26T23:05:23.675Z,100.00
2023-03-26T23:07:52.203Z,100.00
2023-03-26T23:10:19.281Z,100.00
2023-03-26T23:12:46.578Z,100.00
2023-03-26T23:15:14.060Z,100.00
2023-03-26T23:17:41.309Z,100.00
2023-03-26T23:20:14.510Z,100.00
2023-03-26T23:22:42.930Z,100.00
2023-03-26T23:25:11.627Z,100.00
2023-03-26T23:27:40.202Z,100.00
2023-03-26T23:30:08.152Z,100.00
2023-03-26T23:32:37.755Z,100.00
2023-03-26T23:35:06.031Z,100.00
2023-03-26T23:37:35.095Z,100.00
2023-03-26T23:40:07.370Z,100.00
2023-03-26T23:42:34.606Z,100.00
2023-03-26T23:45:01.950Z,100.00
2023-03-26T23:47:34.295Z,100.00
2023-03-26T23:50:02.644Z,100.00
2023-03-26T23:52:30.820Z,100.00
2023-03-26T23:55:00.764Z,100.00
2023-03-26T23:57:27.886Z,100.00
2023-03-26T23:59:55.560Z,100.00
